sensor_id;sensor_type;location;lat;lon;timestamp;temperature;humidity
3842;DHT22;1936;47.074;15.336;2023-05-07T00:00:09;15.80;90.10
3842;DHT22;1936;47.074;15.336;2023-05-07T00:02:15;15.80;89.90
3842;DHT22;1936;47.074;15.336;2023-05-07T00:04:18;15.80;89.20
3842;DHT22;1936;47.074;15.336;2023-05-07T00:06:22;15.90;89.60
3842;DHT22;1936;47.074;15.336;2023-05-07T00:08:28;15.90;89.40
3842;DHT22;1936;47.074;15.336;2023-05-07T00:10:31;15.90;89.30
3842;DHT22;1936;47.074;15.336;2023-05-07T00:12:35;16.00;89.60
3842;DHT22;1936;47.074;15.336;2023-05-07T00:14:38;16.00;89.30
3842;DHT22;1936;47.074;15.336;2023-05-07T00:16:42;16.00;88.90
3842;DHT22;1936;47.074;15.336;2023-05-07T00:18:47;15.90;89.50
3842;DHT22;1936;47.074;15.336;2023-05-07T00:20:50;15.70;89.70
3842;DHT22;1936;47.074;15.336;2023-05-07T00:22:54;15.80;89.50
3842;DHT22;1936;47.074;15.336;2023-05-07T00:24:57;15.70;89.50
3842;DHT22;1936;47.074;15.336;2023-05-07T00:27:01;15.70;89.70
3842;DHT22;1936;47.074;15.336;2023-05-07T00:29:05;15.60;90.00
3842;DHT22;1936;47.074;15.336;2023-05-07T00:31:08;15.80;89.40
3842;DHT22;1936;47.074;15.336;2023-05-07T00:33:12;16.00;88.60
3842;DHT22;1936;47.074;15.336;2023-05-07T00:35:17;15.90;87.70
3842;DHT22;1936;47.074;15.336;2023-05-07T00:37:20;15.70;88.80
3842;DHT22;1936;47.074;15.336;2023-05-07T00:39:24;15.60;89.80
3842;DHT22;1936;47.074;15.336;2023-05-07T00:41:28;15.50;90.20
3842;DHT22;1936;47.074;15.336;2023-05-07T00:43:32;15.30;90.50
3842;DHT22;1936;47.074;15.336;2023-05-07T00:45:35;15.30;90.70
3842;DHT22;1936;47.074;15.336;2023-05-07T00:47:39;15.30;90.50
3842;DHT22;1936;47.074;15.336;2023-05-07T00:49:44;15.00;90.70
3842;DHT22;1936;47.074;15.336;2023-05-07T00:51:50;14.90;91.00
3842;DHT22;1936;47.074;15.336;2023-05-07T00:53:53;14.90;91.30
3842;DHT22;1936;47.074;15.336;2023-05-07T00:55:57;15.00;91.10
3842;DHT22;1936;47.074;15.336;2023-05-07T00:58:02;14.80;91.30
3842;DHT22;1936;47.074;15.336;2023-05-07T01:00:07;14.80;91.40
3842;DHT22;1936;47.074;15.336;2023-05-07T01:02:12;14.80;91.40
3842;DHT22;1936;47.074;15.336;2023-05-07T01:04:15;14.80;91.10
3842;DHT22;1936;47.074;15.336;2023-05-07T01:06:20;14.80;90.90
3842;DHT22;1936;47.074;15.336;2023-05-07T01:08:26;14.80;90.60
3842;DHT22;1936;47.074;15.336;2023-05-07T01:10:31;14.90;90.10
3842;DHT22;1936;47.074;15.336;2023-05-07T01:12:37;14.80;89.60
3842;DHT22;1936;47.074;15.336;2023-05-07T01:14:41;14.70;89.40
3842;DHT22;1936;47.074;15.336;2023-05-07T01:16:44;14.60;89.00
3842;DHT22;1936;47.074;15.336;2023-05-07T01:18:48;14.40;89.30
3842;DHT22;1936;47.074;15.336;2023-05-07T01:20:52;14.40;89.90
3842;DHT22;1936;47.074;15.336;2023-05-07T01:22:57;14.40;89.60
3842;DHT22;1936;47.074;15.336;2023-05-07T01:25:01;14.30;89.80
3842;DHT22;1936;47.074;15.336;2023-05-07T01:27:04;14.20;90.00
3842;DHT22;1936;47.074;15.336;2023-05-07T01:29:08;14.20;90.20
3842;DHT22;1936;47.074;15.336;2023-05-07T01:31:12;14.10;90.10
3842;DHT22;1936;47.074;15.336;2023-05-07T01:33:20;14.00;90.10
3842;DHT22;1936;47.074;15.336;2023-05-07T01:35:27;13.90;90.40
3842;DHT22;1936;47.074;15.336;2023-05-07T01:37:33;14.00;90.50
3842;DHT22;1936;47.074;15.336;2023-05-07T01:39:39;14.00;90.20
3842;DHT22;1936;47.074;15.336;2023-05-07T01:41:43;14.00;90.00
3842;DHT22;1936;47.074;15.336;2023-05-07T01:43:47;14.00;89.60
3842;DHT22;1936;47.074;15.336;2023-05-07T01:45:51;13.90;91.60
3842;DHT22;1936;47.074;15.336;2023-05-07T01:47:57;13.80;89.80
3842;DHT22;1936;47.074;15.336;2023-05-07T01:50:01;13.70;89.60
3842;DHT22;1936;47.074;15.336;2023-05-07T01:52:05;13.50;90.30
3842;DHT22;1936;47.074;15.336;2023-05-07T01:54:08;13.60;90.30
3842;DHT22;1936;47.074;15.336;2023-05-07T01:56:13;13.70;92.20
3842;DHT22;1936;47.074;15.336;2023-05-07T01:58:17;13.60;93.70
3842;DHT22;1936;47.074;15.336;2023-05-07T02:00:21;13.50;95.90
3842;DHT22;1936;47.074;15.336;2023-05-07T02:02:25;13.60;92.80
3842;DHT22;1936;47.074;15.336;2023-05-07T02:04:28;13.50;92.20
3842;DHT22;1936;47.074;15.336;2023-05-07T02:06:32;13.40;92.40
3842;DHT22;1936;47.074;15.336;2023-05-07T02:08:36;13.30;92.10
3842;DHT22;1936;47.074;15.336;2023-05-07T02:10:39;13.40;92.90
3842;DHT22;1936;47.074;15.336;2023-05-07T02:12:44;13.40;94.60
3842;DHT22;1936;47.074;15.336;2023-05-07T02:14:48;13.30;94.40
3842;DHT22;1936;47.074;15.336;2023-05-07T02:16:51;13.40;95.10
3842;DHT22;1936;47.074;15.336;2023-05-07T02:18:55;13.40;95.20
3842;DHT22;1936;47.074;15.336;2023-05-07T02:20:58;13.40;95.20
3842;DHT22;1936;47.074;15.336;2023-05-07T02:23:01;13.20;95.80
3842;DHT22;1936;47.074;15.336;2023-05-07T02:25:06;13.20;95.90
3842;DHT22;1936;47.074;15.336;2023-05-07T02:27:09;13.10;96.00
3842;DHT22;1936;47.074;15.336;2023-05-07T02:29:14;13.10;98.10
3842;DHT22;1936;47.074;15.336;2023-05-07T02:31:18;12.90;99.90
3842;DHT22;1936;47.074;15.336;2023-05-07T02:33:21;13.10;99.90
3842;DHT22;1936;47.074;15.336;2023-05-07T02:35:25;13.20;99.90
3842;DHT22;1936;47.074;15.336;2023-05-07T02:37:29;13.30;99.90
3842;DHT22;1936;47.074;15.336;2023-05-07T02:39:32;13.30;99.90
3842;DHT22;1936;47.074;15.336;2023-05-07T02:41:36;13.30;99.90
3842;DHT22;1936;47.074;15.336;2023-05-07T02:43:39;13.20;99.90
3842;DHT22;1936;47.074;15.336;2023-05-07T02:45:44;13.30;99.90
3842;DHT22;1936;47.074;15.336;2023-05-07T02:47:48;13.20;99.90
3842;DHT22;1936;47.074;15.336;2023-05-07T02:49:51;13.20;99.90
3842;DHT22;1936;47.074;15.336;2023-05-07T02:51:54;13.20;99.90
3842;DHT22;1936;47.074;15.336;2023-05-07T02:53:58;13.00;99.90
3842;DHT22;1936;47.074;15.336;2023-05-07T02:56:03;12.90;91.90
3842;DHT22;1936;47.074;15.336;2023-05-07T02:58:07;13.00;91.50
3842;DHT22;1936;47.074;15.336;2023-05-07T03:00:13;12.90;91.70
3842;DHT22;1936;47.074;15.336;2023-05-07T03:02:21;12.80;91.50
3842;DHT22;1936;47.074;15.336;2023-05-07T03:04:25;12.80;91.50
3842;DHT22;1936;47.074;15.336;2023-05-07T03:06:28;12.80;91.60
3842;DHT22;1936;47.074;15.336;2023-05-07T03:08:32;12.70;91.70
3842;DHT22;1936;47.074;15.336;2023-05-07T03:10:36;12.70;91.80
3842;DHT22;1936;47.074;15.336;2023-05-07T03:12:39;12.80;91.80
3842;DHT22;1936;47.074;15.336;2023-05-07T03:14:43;12.90;91.80
3842;DHT22;1936;47.074;15.336;2023-05-07T03:16:46;13.00;91.80
3842;DHT22;1936;47.074;15.336;2023-05-07T03:18:51;13.00;92.00
3842;DHT22;1936;47.074;15.336;2023-05-07T03:20:55;13.20;91.60
3842;DHT22;1936;47.074;15.336;2023-05-07T03:22:58;13.10;91.70
3842;DHT22;1936;47.074;15.336;2023-05-07T03:25:02;13.00;91.60
3842;DHT22;1936;47.074;15.336;2023-05-07T03:27:06;13.00;91.70
3842;DHT22;1936;47.074;15.336;2023-05-07T03:29:09;13.00;91.50
3842;DHT22;1936;47.074;15.336;2023-05-07T03:31:13;13.10;91.30
3842;DHT22;1936;47.074;15.336;2023-05-07T03:33:17;13.00;91.30
3842;DHT22;1936;47.074;15.336;2023-05-07T03:35:22;13.10;91.00
3842;DHT22;1936;47.074;15.336;2023-05-07T03:37:26;13.00;90.80
3842;DHT22;1936;47.074;15.336;2023-05-07T03:39:30;13.00;90.80
3842;DHT22;1936;47.074;15.336;2023-05-07T03:41:34;13.00;91.20
3842;DHT22;1936;47.074;15.336;2023-05-07T03:43:37;12.90;91.40
3842;DHT22;1936;47.074;15.336;2023-05-07T03:45:40;12.80;91.60
3842;DHT22;1936;47.074;15.336;2023-05-07T03:47:44;12.80;91.60
3842;DHT22;1936;47.074;15.336;2023-05-07T03:49:48;13.00;91.40
3842;DHT22;1936;47.074;15.336;2023-05-07T03:51:53;13.20;91.10
3842;DHT22;1936;47.074;15.336;2023-05-07T03:53:57;13.10;91.40
3842;DHT22;1936;47.074;15.336;2023-05-07T03:56:01;13.30;91.10
3842;DHT22;1936;47.074;15.336;2023-05-07T03:58:04;13.40;91.00
3842;DHT22;1936;47.074;15.336;2023-05-07T04:00:08;13.50;90.50
3842;DHT22;1936;47.074;15.336;2023-05-07T04:02:12;13.50;90.60
3842;DHT22;1936;47.074;15.336;2023-05-07T04:04:16;13.50;90.50
3842;DHT22;1936;47.074;15.336;2023-05-07T04:06:20;13.40;90.70
3842;DHT22;1936;47.074;15.336;2023-05-07T04:08:25;13.50;90.70
3842;DHT22;1936;47.074;15.336;2023-05-07T04:10:30;13.30;90.80
3842;DHT22;1936;47.074;15.336;2023-05-07T04:12:33;13.50;90.70
3842;DHT22;1936;47.074;15.336;2023-05-07T04:14:37;13.70;90.30
3842;DHT22;1936;47.074;15.336;2023-05-07T04:16:40;13.80;90.00
3842;DHT22;1936;47.074;15.336;2023-05-07T04:18:44;13.60;90.30
3842;DHT22;1936;47.074;15.336;2023-05-07T04:20:48;13.70;90.10
3842;DHT22;1936;47.074;15.336;2023-05-07T04:22:51;13.60;90.30
3842;DHT22;1936;47.074;15.336;2023-05-07T04:24:56;13.40;90.80
3842;DHT22;1936;47.074;15.336;2023-05-07T04:27:00;13.50;90.90
3842;DHT22;1936;47.074;15.336;2023-05-07T04:29:03;13.60;90.50
3842;DHT22;1936;47.074;15.336;2023-05-07T04:31:08;13.80;90.40
3842;DHT22;1936;47.074;15.336;2023-05-07T04:33:11;13.90;90.00
3842;DHT22;1936;47.074;15.336;2023-05-07T04:35:15;14.00;89.40
3842;DHT22;1936;47.074;15.336;2023-05-07T04:37:19;13.90;89.80
3842;DHT22;1936;47.074;15.336;2023-05-07T04:39:22;13.80;90.40
3842;DHT22;1936;47.074;15.336;2023-05-07T04:41:28;13.80;90.50
3842;DHT22;1936;47.074;15.336;2023-05-07T04:43:31;13.90;90.20
3842;DHT22;1936;47.074;15.336;2023-05-07T04:45:35;14.00;90.20
3842;DHT22;1936;47.074;15.336;2023-05-07T04:47:39;14.20;90.10
3842;DHT22;1936;47.074;15.336;2023-05-07T04:49:42;14.30;89.30
3842;DHT22;1936;47.074;15.336;2023-05-07T04:51:46;14.50;88.50
3842;DHT22;1936;47.074;15.336;2023-05-07T04:53:49;14.70;87.60
3842;DHT22;1936;47.074;15.336;2023-05-07T04:55:55;14.70;87.20
3842;DHT22;1936;47.074;15.336;2023-05-07T04:58:01;14.60;89.10
3842;DHT22;1936;47.074;15.336;2023-05-07T05:00:06;14.80;89.00
3842;DHT22;1936;47.074;15.336;2023-05-07T05:02:11;15.10;87.70
3842;DHT22;1936;47.074;15.336;2023-05-07T05:04:15;15.40;86.40
3842;DHT22;1936;47.074;15.336;2023-05-07T05:06:18;15.60;85.40
3842;DHT22;1936;47.074;15.336;2023-05-07T05:08:21;15.30;84.40
3842;DHT22;1936;47.074;15.336;2023-05-07T05:10:25;14.90;86.90
3842;DHT22;1936;47.074;15.336;2023-05-07T05:12:29;14.80;88.10
3842;DHT22;1936;47.074;15.336;2023-05-07T05:14:35;14.80;88.00
3842;DHT22;1936;47.074;15.336;2023-05-07T05:16:39;14.90;88.50
3842;DHT22;1936;47.074;15.336;2023-05-07T05:18:43;15.30;87.30
3842;DHT22;1936;47.074;15.336;2023-05-07T05:20:46;15.50;85.10
3842;DHT22;1936;47.074;15.336;2023-05-07T05:22:50;15.50;82.70
3842;DHT22;1936;47.074;15.336;2023-05-07T05:25:01;15.60;84.50
3842;DHT22;1936;47.074;15.336;2023-05-07T05:27:05;15.80;84.00
3842;DHT22;1936;47.074;15.336;2023-05-07T05:29:11;16.00;84.00
3842;DHT22;1936;47.074;15.336;2023-05-07T05:31:17;16.00;82.10
3842;DHT22;1936;47.074;15.336;2023-05-07T05:33:23;16.00;81.10
3842;DHT22;1936;47.074;15.336;2023-05-07T05:35:31;16.00;80.90
3842;DHT22;1936;47.074;15.336;2023-05-07T05:37:35;16.00;82.50
3842;DHT22;1936;47.074;15.336;2023-05-07T05:39:39;16.00;80.40
3842;DHT22;1936;47.074;15.336;2023-05-07T05:41:43;15.90;80.30
3842;DHT22;1936;47.074;15.336;2023-05-07T05:43:49;16.00;81.30
3842;DHT22;1936;47.074;15.336;2023-05-07T05:45:55;15.80;82.30
3842;DHT22;1936;47.074;15.336;2023-05-07T05:48:00;15.70;81.80
3842;DHT22;1936;47.074;15.336;2023-05-07T05:50:05;15.80;82.10
3842;DHT22;1936;47.074;15.336;2023-05-07T05:52:11;16.00;81.70
3842;DHT22;1936;47.074;15.336;2023-05-07T05:54:15;16.30;80.80
3842;DHT22;1936;47.074;15.336;2023-05-07T05:56:19;16.50;80.10
3842;DHT22;1936;47.074;15.336;2023-05-07T05:58:23;16.80;77.40
3842;DHT22;1936;47.074;15.336;2023-05-07T06:00:26;16.80;76.90
3842;DHT22;1936;47.074;15.336;2023-05-07T06:02:30;16.80;77.30
3842;DHT22;1936;47.074;15.336;2023-05-07T06:04:37;16.90;76.40
3842;DHT22;1936;47.074;15.336;2023-05-07T06:06:41;16.90;77.80
3842;DHT22;1936;47.074;15.336;2023-05-07T06:08:47;17.20;79.30
3842;DHT22;1936;47.074;15.336;2023-05-07T06:10:51;17.70;77.50
3842;DHT22;1936;47.074;15.336;2023-05-07T06:12:56;18.20;74.90
3842;DHT22;1936;47.074;15.336;2023-05-07T06:15:00;18.70;74.70
3842;DHT22;1936;47.074;15.336;2023-05-07T06:17:06;19.20;75.20
3842;DHT22;1936;47.074;15.336;2023-05-07T06:19:13;19.60;72.10
3842;DHT22;1936;47.074;15.336;2023-05-07T06:21:21;20.10;70.10
3842;DHT22;1936;47.074;15.336;2023-05-07T06:23:25;20.50;68.80
3842;DHT22;1936;47.074;15.336;2023-05-07T06:25:28;20.50;67.30
3842;DHT22;1936;47.074;15.336;2023-05-07T06:27:32;21.10;66.60
3842;DHT22;1936;47.074;15.336;2023-05-07T06:29:35;21.10;61.80
3842;DHT22;1936;47.074;15.336;2023-05-07T06:31:39;21.70;64.20
3842;DHT22;1936;47.074;15.336;2023-05-07T06:33:44;22.80;60.10
3842;DHT22;1936;47.074;15.336;2023-05-07T06:35:47;23.90;59.90
3842;DHT22;1936;47.074;15.336;2023-05-07T06:37:53;24.80;58.20
3842;DHT22;1936;47.074;15.336;2023-05-07T06:39:57;25.40;55.70
3842;DHT22;1936;47.074;15.336;2023-05-07T06:42:01;26.30;51.30
3842;DHT22;1936;47.074;15.336;2023-05-07T06:44:06;27.20;55.00
3842;DHT22;1936;47.074;15.336;2023-05-07T06:46:11;27.20;52.60
3842;DHT22;1936;47.074;15.336;2023-05-07T06:48:14;27.90;54.40
3842;DHT22;1936;47.074;15.336;2023-05-07T06:50:18;28.00;54.00
3842;DHT22;1936;47.074;15.336;2023-05-07T06:52:23;26.90;52.40
3842;DHT22;1936;47.074;15.336;2023-05-07T06:54:29;26.40;56.30
3842;DHT22;1936;47.074;15.336;2023-05-07T06:56:32;27.00;56.50
3842;DHT22;1936;47.074;15.336;2023-05-07T06:58:37;27.30;56.20
3842;DHT22;1936;47.074;15.336;2023-05-07T07:00:41;28.60;56.70
3842;DHT22;1936;47.074;15.336;2023-05-07T07:02:45;28.30;52.70
3842;DHT22;1936;47.074;15.336;2023-05-07T07:04:48;29.30;52.70
3842;DHT22;1936;47.074;15.336;2023-05-07T07:06:53;28.90;50.30
3842;DHT22;1936;47.074;15.336;2023-05-07T07:08:58;28.80;52.20
3842;DHT22;1936;47.074;15.336;2023-05-07T07:11:04;29.80;52.60
3842;DHT22;1936;47.074;15.336;2023-05-07T07:13:07;29.90;52.00
3842;DHT22;1936;47.074;15.336;2023-05-07T07:15:11;29.90;51.90
3842;DHT22;1936;47.074;15.336;2023-05-07T07:21:23;31.00;68.40
3842;DHT22;1936;47.074;15.336;2023-05-07T07:23:27;31.80;54.40
3842;DHT22;1936;47.074;15.336;2023-05-07T07:25:31;32.40;36.40
3842;DHT22;1936;47.074;15.336;2023-05-07T07:27:40;32.00;34.70
3842;DHT22;1936;47.074;15.336;2023-05-07T07:29:44;31.40;38.60
3842;DHT22;1936;47.074;15.336;2023-05-07T07:31:48;31.60;35.70
3842;DHT22;1936;47.074;15.336;2023-05-07T07:33:52;32.00;36.60
3842;DHT22;1936;47.074;15.336;2023-05-07T07:35:56;32.10;35.70
3842;DHT22;1936;47.074;15.336;2023-05-07T07:38:00;32.10;32.70
3842;DHT22;1936;47.074;15.336;2023-05-07T07:40:07;30.40;33.70
3842;DHT22;1936;47.074;15.336;2023-05-07T07:42:12;30.90;35.10
3842;DHT22;1936;47.074;15.336;2023-05-07T07:44:20;31.40;33.30
3842;DHT22;1936;47.074;15.336;2023-05-07T07:46:24;31.10;36.40
3842;DHT22;1936;47.074;15.336;2023-05-07T07:48:28;30.30;37.80
3842;DHT22;1936;47.074;15.336;2023-05-07T07:50:32;30.10;38.80
3842;DHT22;1936;47.074;15.336;2023-05-07T07:52:46;30.00;38.70
3842;DHT22;1936;47.074;15.336;2023-05-07T07:54:50;31.10;38.40
3842;DHT22;1936;47.074;15.336;2023-05-07T07:56:53;31.60;34.80
3842;DHT22;1936;47.074;15.336;2023-05-07T07:58:57;32.60;33.00
3842;DHT22;1936;47.074;15.336;2023-05-07T08:01:09;32.80;33.60
3842;DHT22;1936;47.074;15.336;2023-05-07T08:03:14;31.20;36.50
3842;DHT22;1936;47.074;15.336;2023-05-07T08:05:19;31.20;33.60
3842;DHT22;1936;47.074;15.336;2023-05-07T08:07:22;30.80;37.00
3842;DHT22;1936;47.074;15.336;2023-05-07T08:09:26;30.70;36.40
3842;DHT22;1936;47.074;15.336;2023-05-07T08:11:30;31.90;35.90
3842;DHT22;1936;47.074;15.336;2023-05-07T08:13:37;32.80;36.00
3842;DHT22;1936;47.074;15.336;2023-05-07T08:15:41;31.70;32.80
3842;DHT22;1936;47.074;15.336;2023-05-07T08:17:49;31.90;35.30
3842;DHT22;1936;47.074;15.336;2023-05-07T08:19:56;31.60;34.60
3842;DHT22;1936;47.074;15.336;2023-05-07T08:22:02;31.10;36.20
3842;DHT22;1936;47.074;15.336;2023-05-07T08:24:06;32.20;35.90
3842;DHT22;1936;47.074;15.336;2023-05-07T08:26:10;32.60;36.50
3842;DHT22;1936;47.074;15.336;2023-05-07T08:28:13;32.40;32.80
3842;DHT22;1936;47.074;15.336;2023-05-07T08:30:17;33.00;35.70
3842;DHT22;1936;47.074;15.336;2023-05-07T08:32:21;32.90;33.30
3842;DHT22;1936;47.074;15.336;2023-05-07T08:34:26;33.50;31.10
3842;DHT22;1936;47.074;15.336;2023-05-07T08:36:29;33.70;33.30
3842;DHT22;1936;47.074;15.336;2023-05-07T08:38:33;33.90;30.80
3842;DHT22;1936;47.074;15.336;2023-05-07T08:40:39;33.50;31.10
3842;DHT22;1936;47.074;15.336;2023-05-07T08:42:49;33.50;31.90
3842;DHT22;1936;47.074;15.336;2023-05-07T08:44:59;33.50;33.90
3842;DHT22;1936;47.074;15.336;2023-05-07T08:47:06;33.20;32.20
3842;DHT22;1936;47.074;15.336;2023-05-07T08:49:12;32.30;37.20
3842;DHT22;1936;47.074;15.336;2023-05-07T08:51:20;33.20;36.00
3842;DHT22;1936;47.074;15.336;2023-05-07T08:53:25;33.80;32.90
3842;DHT22;1936;47.074;15.336;2023-05-07T08:55:34;35.30;30.80
3842;DHT22;1936;47.074;15.336;2023-05-07T08:58:00;36.00;31.80
3842;DHT22;1936;47.074;15.336;2023-05-07T09:00:14;37.20;30.40
3842;DHT22;1936;47.074;15.336;2023-05-07T09:02:18;37.20;27.40
3842;DHT22;1936;47.074;15.336;2023-05-07T09:04:23;37.10;29.50
3842;DHT22;1936;47.074;15.336;2023-05-07T09:06:28;35.70;27.90
3842;DHT22;1936;47.074;15.336;2023-05-07T09:08:33;35.20;30.60
3842;DHT22;1936;47.074;15.336;2023-05-07T09:10:37;35.20;31.00
3842;DHT22;1936;47.074;15.336;2023-05-07T09:12:41;35.50;30.10
3842;DHT22;1936;47.074;15.336;2023-05-07T09:14:45;36.10;30.70
3842;DHT22;1936;47.074;15.336;2023-05-07T09:16:49;35.00;32.60
3842;DHT22;1936;47.074;15.336;2023-05-07T09:18:54;35.20;30.30
3842;DHT22;1936;47.074;15.336;2023-05-07T09:20:57;36.00;28.00
3842;DHT22;1936;47.074;15.336;2023-05-07T09:23:02;35.00;31.70
3842;DHT22;1936;47.074;15.336;2023-05-07T09:25:07;36.10;28.40
3842;DHT22;1936;47.074;15.336;2023-05-07T09:27:11;36.30;30.60
3842;DHT22;1936;47.074;15.336;2023-05-07T09:29:15;36.30;31.10
3842;DHT22;1936;47.074;15.336;2023-05-07T09:31:20;35.10;28.90
3842;DHT22;1936;47.074;15.336;2023-05-07T09:33:27;34.30;33.50
3842;DHT22;1936;47.074;15.336;2023-05-07T09:35:31;35.00;29.30
3842;DHT22;1936;47.074;15.336;2023-05-07T09:37:35;35.20;31.70
3842;DHT22;1936;47.074;15.336;2023-05-07T09:39:41;36.20;32.00
3842;DHT22;1936;47.074;15.336;2023-05-07T09:41:45;36.50;29.30
3842;DHT22;1936;47.074;15.336;2023-05-07T09:43:53;37.50;27.90
3842;DHT22;1936;47.074;15.336;2023-05-07T09:45:58;37.30;27.00
3842;DHT22;1936;47.074;15.336;2023-05-07T09:48:05;37.40;26.50
3842;DHT22;1936;47.074;15.336;2023-05-07T09:50:10;37.10;27.80
3842;DHT22;1936;47.074;15.336;2023-05-07T09:52:15;35.70;31.30
3842;DHT22;1936;47.074;15.336;2023-05-07T09:54:19;35.30;30.50
3842;DHT22;1936;47.074;15.336;2023-05-07T09:56:24;36.20;29.90
3842;DHT22;1936;47.074;15.336;2023-05-07T09:58:28;36.80;28.50
3842;DHT22;1936;47.074;15.336;2023-05-07T10:00:32;36.10;27.10
3842;DHT22;1936;47.074;15.336;2023-05-07T10:02:39;34.50;27.30
3842;DHT22;1936;47.074;15.336;2023-05-07T10:04:48;34.30;34.50
3842;DHT22;1936;47.074;15.336;2023-05-07T10:06:52;35.20;29.70
3842;DHT22;1936;47.074;15.336;2023-05-07T10:08:57;35.00;29.40
3842;DHT22;1936;47.074;15.336;2023-05-07T10:11:03;35.10;30.20
3842;DHT22;1936;47.074;15.336;2023-05-07T10:13:09;34.20;28.60
3842;DHT22;1936;47.074;15.336;2023-05-07T10:15:13;34.10;30.20
3842;DHT22;1936;47.074;15.336;2023-05-07T10:17:17;33.20;31.90
3842;DHT22;1936;47.074;15.336;2023-05-07T10:19:22;32.40;31.10
3842;DHT22;1936;47.074;15.336;2023-05-07T10:21:30;32.00;33.60
3842;DHT22;1936;47.074;15.336;2023-05-07T10:23:34;32.70;37.90
3842;DHT22;1936;47.074;15.336;2023-05-07T10:25:38;34.00;33.60
3842;DHT22;1936;47.074;15.336;2023-05-07T10:27:42;32.40;31.50
3842;DHT22;1936;47.074;15.336;2023-05-07T10:29:55;33.30;32.70
3842;DHT22;1936;47.074;15.336;2023-05-07T10:32:13;34.20;31.40
3842;DHT22;1936;47.074;15.336;2023-05-07T10:34:21;34.30;30.80
3842;DHT22;1936;47.074;15.336;2023-05-07T10:36:26;34.80;29.40
3842;DHT22;1936;47.074;15.336;2023-05-07T10:38:30;34.80;32.90
3842;DHT22;1936;47.074;15.336;2023-05-07T10:40:34;35.30;29.40
3842;DHT22;1936;47.074;15.336;2023-05-07T10:42:37;34.90;28.10
3842;DHT22;1936;47.074;15.336;2023-05-07T10:44:41;34.20;32.80
3842;DHT22;1936;47.074;15.336;2023-05-07T10:47:04;34.30;30.00
3842;DHT22;1936;47.074;15.336;2023-05-07T10:49:08;33.10;31.10
3842;DHT22;1936;47.074;15.336;2023-05-07T10:51:21;32.70;34.10
3842;DHT22;1936;47.074;15.336;2023-05-07T10:53:25;32.80;34.40
3842;DHT22;1936;47.074;15.336;2023-05-07T10:55:30;33.10;31.50
3842;DHT22;1936;47.074;15.336;2023-05-07T10:57:34;32.70;32.50
3842;DHT22;1936;47.074;15.336;2023-05-07T10:59:40;32.50;32.30
3842;DHT22;1936;47.074;15.336;2023-05-07T11:01:53;32.20;32.50
3842;DHT22;1936;47.074;15.336;2023-05-07T11:04:16;32.10;35.90
3842;DHT22;1936;47.074;15.336;2023-05-07T11:06:26;31.20;33.90
3842;DHT22;1936;47.074;15.336;2023-05-07T11:08:52;31.50;36.00
3842;DHT22;1936;47.074;15.336;2023-05-07T11:10:57;31.20;37.90
3842;DHT22;1936;47.074;15.336;2023-05-07T11:13:01;31.90;35.60
3842;DHT22;1936;47.074;15.336;2023-05-07T11:15:06;31.30;34.80
3842;DHT22;1936;47.074;15.336;2023-05-07T11:17:11;31.70;36.90
3842;DHT22;1936;47.074;15.336;2023-05-07T11:19:15;32.00;36.30
3842;DHT22;1936;47.074;15.336;2023-05-07T11:21:32;32.10;36.10
3842;DHT22;1936;47.074;15.336;2023-05-07T11:23:58;32.70;35.30
3842;DHT22;1936;47.074;15.336;2023-05-07T11:26:04;32.80;32.90
3842;DHT22;1936;47.074;15.336;2023-05-07T11:28:07;32.00;32.30
3842;DHT22;1936;47.074;15.336;2023-05-07T11:30:17;32.00;34.40
3842;DHT22;1936;47.074;15.336;2023-05-07T11:32:24;30.50;33.80
3842;DHT22;1936;47.074;15.336;2023-05-07T11:34:27;30.30;34.20
3842;DHT22;1936;47.074;15.336;2023-05-07T11:36:32;29.60;37.50
3842;DHT22;1936;47.074;15.336;2023-05-07T11:38:36;29.00;37.30
3842;DHT22;1936;47.074;15.336;2023-05-07T11:40:49;28.70;39.30
3842;DHT22;1936;47.074;15.336;2023-05-07T11:42:53;27.90;38.90
3842;DHT22;1936;47.074;15.336;2023-05-07T11:44:56;28.10;38.90
3842;DHT22;1936;47.074;15.336;2023-05-07T11:47:00;27.70;38.10
3842;DHT22;1936;47.074;15.336;2023-05-07T11:49:05;27.20;39.90
3842;DHT22;1936;47.074;15.336;2023-05-07T11:51:09;26.50;43.00
3842;DHT22;1936;47.074;15.336;2023-05-07T11:53:14;26.20;43.60
3842;DHT22;1936;47.074;15.336;2023-05-07T11:55:19;26.60;44.30
3842;DHT22;1936;47.074;15.336;2023-05-07T11:57:25;26.50;43.30
3842;DHT22;1936;47.074;15.336;2023-05-07T11:59:28;26.70;45.90
3842;DHT22;1936;47.074;15.336;2023-05-07T12:01:31;27.00;44.10
3842;DHT22;1936;47.074;15.336;2023-05-07T12:03:35;27.50;42.40
3842;DHT22;1936;47.074;15.336;2023-05-07T12:05:41;27.70;40.80
3842;DHT22;1936;47.074;15.336;2023-05-07T12:07:45;27.70;40.20
3842;DHT22;1936;47.074;15.336;2023-05-07T12:09:48;27.80;41.10
3842;DHT22;1936;47.074;15.336;2023-05-07T12:11:53;27.80;39.60
3842;DHT22;1936;47.074;15.336;2023-05-07T12:13:58;27.50;42.50
3842;DHT22;1936;47.074;15.336;2023-05-07T12:16:01;26.80;40.00
3842;DHT22;1936;47.074;15.336;2023-05-07T12:18:06;27.10;44.30
3842;DHT22;1936;47.074;15.336;2023-05-07T12:20:10;27.10;42.80
3842;DHT22;1936;47.074;15.336;2023-05-07T12:22:15;26.50;44.80
3842;DHT22;1936;47.074;15.336;2023-05-07T12:24:19;26.90;43.50
3842;DHT22;1936;47.074;15.336;2023-05-07T12:26:23;26.90;42.20
3842;DHT22;1936;47.074;15.336;2023-05-07T12:28:27;26.40;46.60
3842;DHT22;1936;47.074;15.336;2023-05-07T12:30:31;26.60;44.20
3842;DHT22;1936;47.074;15.336;2023-05-07T12:32:36;26.30;44.70
3842;DHT22;1936;47.074;15.336;2023-05-07T12:34:39;26.00;44.60
3842;DHT22;1936;47.074;15.336;2023-05-07T12:36:48;26.20;45.20
3842;DHT22;1936;47.074;15.336;2023-05-07T12:38:54;26.00;45.30
3842;DHT22;1936;47.074;15.336;2023-05-07T12:40:58;26.20;46.50
3842;DHT22;1936;47.074;15.336;2023-05-07T12:43:01;26.40;44.60
3842;DHT22;1936;47.074;15.336;2023-05-07T12:45:09;25.80;44.20
3842;DHT22;1936;47.074;15.336;2023-05-07T12:47:13;25.70;45.40
3842;DHT22;1936;47.074;15.336;2023-05-07T12:49:18;25.30;46.40
3842;DHT22;1936;47.074;15.336;2023-05-07T12:51:25;25.40;47.70
3842;DHT22;1936;47.074;15.336;2023-05-07T12:53:29;25.20;46.90
3842;DHT22;1936;47.074;15.336;2023-05-07T12:55:41;24.90;47.90
3842;DHT22;1936;47.074;15.336;2023-05-07T12:57:48;24.80;47.70
3842;DHT22;1936;47.074;15.336;2023-05-07T12:59:58;24.60;50.90
3842;DHT22;1936;47.074;15.336;2023-05-07T13:02:01;24.10;51.80
3842;DHT22;1936;47.074;15.336;2023-05-07T13:04:05;23.60;54.30
3842;DHT22;1936;47.074;15.336;2023-05-07T13:06:09;23.30;59.10
3842;DHT22;1936;47.074;15.336;2023-05-07T13:08:24;22.50;63.50
3842;DHT22;1936;47.074;15.336;2023-05-07T13:10:28;22.20;64.50
3842;DHT22;1936;47.074;15.336;2023-05-07T13:12:33;21.60;69.20
3842;DHT22;1936;47.074;15.336;2023-05-07T13:14:37;20.80;60.60
3842;DHT22;1936;47.074;15.336;2023-05-07T13:16:40;20.80;63.40
3842;DHT22;1936;47.074;15.336;2023-05-07T13:18:43;20.20;64.60
3842;DHT22;1936;47.074;15.336;2023-05-07T13:20:47;20.10;64.30
3842;DHT22;1936;47.074;15.336;2023-05-07T13:22:51;19.80;64.60
3842;DHT22;1936;47.074;15.336;2023-05-07T13:24:54;19.60;64.50